CSUN Campus Station - National Weather Service Data Page - PST Time




                Date      RH     Dew  Seasonal     Current   Max Air   Min Air    Wind    Wind    Wind    Gust     Bar    Rain
                Time       %   Point      Rain    Air Temp     Since     Since   Speed    Gust     Dir     Dir   Press   Total
                               Deg F    Inches       Deg F  Midnight  Midnight     MPH     MPH                      mb  Inches
------------------------------------------------------------------------------------------------------------------------------
    05/19/2024 00:00      82    48.9     26.22        54.3      73.9      54.1       2       4      86      67    1015    0.00
    05/19/2024 00:10      83    49.2     26.22        54.4      54.7      54.2       2       5      94     102    1015    0.00
    05/19/2024 00:20      83    49.5     26.22        54.6      54.8      54.2       2       4      93     106    1015    0.00
    05/19/2024 00:30      83    49.6     26.22        54.7      54.9      54.2       2       4      95      88    1015    0.00
    05/19/2024 00:40      83    49.7     26.22        54.9      55.1      54.2       3       5      91      83    1015    0.00
    05/19/2024 00:50      83    49.8     26.22        55.0      55.3      54.2       2       5      91      88    1015    0.00
    05/19/2024 01:00      82    50.0     26.22        55.2      55.5      54.2       2       4     114     107    1015    0.00
    05/19/2024 01:10      82    50.0     26.22        55.3      55.5      54.2       3       6     159     157    1015    0.00
    05/19/2024 01:20      82    50.0     26.22        55.3      55.5      54.2       4       6     163     170    1015    0.00
    05/19/2024 01:30      82    49.8     26.22        55.1      55.5      54.2       3       5     153     166    1015    0.00
    05/19/2024 01:40      83    49.8     26.22        55.0      55.5      54.2       4       5     160     171    1015    0.00
    05/19/2024 01:50      83    49.8     26.22        54.9      55.5      54.2       3       6     160     143    1015    0.00
    05/19/2024 02:00      83    49.9     26.22        55.0      55.5      54.2       3       6     162     152    1015    0.00
    05/19/2024 02:10      83    50.0     26.22        54.9      55.5      54.2       2       5     178     189    1015    0.00
    05/19/2024 02:20      84    50.0     26.22        54.8      55.5      54.2       2       5     103     127    1015    0.00
    05/19/2024 02:30      84    49.9     26.22        54.7      55.5      54.2       2       4     104      99    1015    0.00
    05/19/2024 02:40      84    49.9     26.22        54.6      55.5      54.2       2       4      95     110    1015    0.00
    05/19/2024 02:50      84    49.7     26.22        54.4      55.5      54.2       2       3      77      50    1015    0.00
    05/19/2024 03:00      84    49.7     26.22        54.6      55.5      54.2       2       5      63     124    1015    0.00
    05/19/2024 03:10      83    49.8     26.22        54.7      55.5      54.2       1       4     104      97    1015    0.00
    05/19/2024 03:20      83    49.9     26.22        54.9      55.5      54.2       0       4     177     178    1015    0.00
    05/19/2024 03:30      83    49.8     26.22        54.8      55.5      54.2       3       4     163     164    1015    0.00
    05/19/2024 03:40      83    49.8     26.22        54.7      55.5      54.2       4       5     162     158    1015    0.00
    05/19/2024 03:50      83    49.6     26.22        54.6      55.5      54.2       3       6     150     153    1015    0.00
    05/19/2024 04:00      83    49.5     26.22        54.5      55.5      54.2       2       4     159     175    1015    0.00
    05/19/2024 04:10      83    49.7     26.22        54.6      55.5      54.2       2       4     163     146    1015    0.00
    05/19/2024 04:20      83    49.6     26.22        54.6      55.5      54.2       2       4     168     168    1016    0.00
    05/19/2024 04:30      83    49.6     26.22        54.6      55.5      54.2       0       2     174     160    1016    0.00
    05/19/2024 04:40      83    49.6     26.22        54.6      55.5      54.2       0       2     119     115    1016    0.00
    05/19/2024 04:50      83    49.6     26.22        54.6      55.5      54.2       1       3     105      98    1016    0.00
    05/19/2024 05:00      83    49.6     26.22        54.5      55.5      54.2       1       3     117      95    1016    0.00
    05/19/2024 05:10      84    49.6     26.22        54.5      55.5      54.2       1       3     135     113    1016    0.00
    05/19/2024 05:20      84    49.8     26.22        54.7      55.5      54.2       0       2      88     138    1016    0.00
    05/19/2024 05:30      83    49.6     26.22        54.6      55.5      54.2       0       0      32      32    1016    0.00
    05/19/2024 05:40      82    49.5     26.22        54.7      55.5      54.2       0       2      46      49    1016    0.00
    05/19/2024 05:50      82    49.5     26.22        54.8      55.5      54.2       0       1      47      71    1016    0.00
    05/19/2024 06:00      81    49.5     26.22        55.0      55.5      54.2       0       2      40      44    1016    0.00
    05/19/2024 06:10      80    49.3     26.22        55.2      55.5      54.2       0       2      55      94    1016    0.00
    05/19/2024 06:20      79    49.2     26.22        55.3      55.6      54.2       0       2      58      76    1016    0.00
    05/19/2024 06:30      79    49.2     26.22        55.6      55.8      54.2       2       3     115     114    1016    0.00
    05/19/2024 06:40      79    49.3     26.22        55.7      56.0      54.2       0       3     136     139    1016    0.00
    05/19/2024 06:50      78    49.4     26.22        56.0      56.2      54.2       0       3     100      99    1016    0.00
    05/19/2024 07:00      78    49.6     26.22        56.3      56.7      54.2       0       4     130     117    1016    0.00
    05/19/2024 07:10      77    49.5     26.22        56.4      56.8      54.2       0       3      65      77    1016    0.00
    05/19/2024 07:20      77    49.5     26.22        56.6      56.8      54.2       0       3      52      32    1016    0.00
    05/19/2024 07:30      77    49.4     26.22        56.6      56.9      54.2       0       4     102     105    1016    0.00
    05/19/2024 07:40      76    49.5     26.22        56.8      56.9      54.2       2       4      93      94    1016    0.00
    05/19/2024 07:50      76    49.4     26.22        56.8      57.0      54.2       2       5      88     102    1016    0.00
    05/19/2024 08:00      76    49.4     26.22        56.8      57.0      54.2       2       4      82     123    1016    0.00
    05/19/2024 08:10      76    49.5     26.22        57.0      57.2      54.2       2       4     101      76    1016    0.00
    05/19/2024 08:20      75    49.5     26.22        57.2      57.5      54.2       2       4      87      68    1017    0.00
    05/19/2024 08:30      74    49.7     26.22        57.6      58.0      54.2       2       6     110      99    1017    0.00
    05/19/2024 08:40      72    49.4     26.22        58.0      58.4      54.2       2       5      88     100    1017    0.00
    05/19/2024 08:50      71    49.0     26.22        58.4      58.9      54.2       1       4      54      62    1017    0.00
    05/19/2024 09:00      67    48.6     26.22        59.0      59.3      54.2       2       4      66      62    1017    0.00
    05/19/2024 09:10      66    48.4     26.22        59.4      59.7      54.2       2       8      96     114    1016    0.00
    05/19/2024 09:20      66    48.6     26.22        59.8      60.1      54.2       4       8     139     129    1016    0.00
    05/19/2024 09:30      66    49.3     26.22        60.3      61.1      54.2       3       6     181     201    1016    0.00
    05/19/2024 09:40      63    49.0     26.22        61.1      61.3      54.2       3       7     183     161    1016    0.00
    05/19/2024 09:50      63    48.2     26.22        60.9      61.4      54.2       2       4      47     105    1016    0.00
    05/19/2024 10:00      62    48.0     26.22        60.8      61.4      54.2       4       7      95     119    1016    0.00
    05/19/2024 10:10      61    48.2     26.22        61.2      62.0      54.2       3       6      73      89    1016    0.00
    05/19/2024 10:20      59    49.1     26.22        63.0      64.5      54.2       2       6     145     130    1016    0.00
    05/19/2024 10:30      54    49.0     26.22        64.8      65.6      54.2       3       6     172     111    1016    0.00
    05/19/2024 10:40      52    48.8     26.22        65.3      66.2      54.2       2       6     229     189    1016    0.00
    05/19/2024 10:50      53    49.4     26.22        66.5      67.4      54.2       4       7     203     203    1016    0.00
    05/19/2024 11:00      51    49.3     26.22        67.3      67.8      54.2       3       7     215     168    1016    0.00
    05/19/2024 11:10      52    48.6     26.22        67.4      67.8      54.2       3       8     167     158    1016    0.00
    05/19/2024 11:20      51    47.8     26.22        67.0      67.8      54.2       2       5      37     138    1016    0.00
    05/19/2024 11:30      50    48.1     26.22        66.9      68.1      54.2       3       9     275     175    1016    0.00
    05/19/2024 11:40      48    48.5     26.22        68.7      69.2      54.2       4       6     168     194    1016    0.00
    05/19/2024 11:50      46    47.8     26.22        68.6      69.4      54.2       2       7     169     166    1016    0.00
    05/19/2024 12:00      48    47.7     26.22        69.4      70.2      54.2       3       7     150     152    1016    0.00
    05/19/2024 12:10      43    48.4     26.22        70.8      71.5      54.2       4       9     185     161    1015    0.00
    05/19/2024 12:20      41    47.2     26.22        70.8      71.5      54.2       3       6     138      98    1015    0.00
    05/19/2024 12:30      43    47.2     26.22        70.3      71.5      54.2       3       7     121     130    1015    0.00
    05/19/2024 12:40      43    46.8     26.22        70.6      71.5      54.2       2       7      67     110    1015    0.00
    05/19/2024 12:50      43    47.4     26.22        71.0      72.1      54.2       2       7     268     139    1015    0.00
    05/19/2024 13:00      42    48.2     26.22        72.9      73.3      54.2       3       8     156      93    1015    0.00
    05/19/2024 13:10      40    47.2     26.22        72.5      73.3      54.2       4       9      98     134    1015    0.00
    05/19/2024 13:20      40    47.6     26.22        72.5      73.3      54.2       4       9     123     101    1015    0.00
    05/19/2024 13:30      45    48.6     26.22        72.7      73.6      54.2       7      14     145      79    1015    0.00
    05/19/2024 13:40      46    49.5     26.22        71.3      73.6      54.2       6      13     136     164    1015    0.00
    05/19/2024 13:50      46    50.5     26.22        72.5      73.7      54.2       7      14     168     187    1015    0.00
    05/19/2024 14:00      47    49.3     26.22        72.2      73.8      54.2       6      12     120     102    1015    0.00
    05/19/2024 14:10      45    49.5     26.22        71.8      73.8      54.2       6      10     132     154    1015    0.00
    05/19/2024 14:20      47    49.3     26.22        71.6      73.8      54.2       6      10     146     182    1015    0.00
    05/19/2024 14:30      46    49.4     26.22        71.9      73.8      54.2       5      10     138     172    1015    0.00
    05/19/2024 14:40      45    48.7     26.22        71.4      73.8      54.2       7      13     122     108    1014    0.00
    05/19/2024 14:50      45    48.7     26.22        71.2      73.8      54.2       5       9     113     100    1014    0.00
    05/19/2024 15:00      45    48.5     26.22        71.3      73.8      54.2       5      10      94     100    1014    0.00
    05/19/2024 15:10      44    48.5     26.22        71.2      73.8      54.2       6      11     106     103    1014    0.00
    05/19/2024 15:20      45    48.4     26.22        70.8      73.8      54.2       6       9     111     103    1014    0.00
    05/19/2024 15:30      45    48.8     26.22        71.0      73.8      54.2       5      11     108     113    1014    0.00
    05/19/2024 15:40      46    48.3     26.22        71.0      73.8      54.2       7      11     112      66    1014    0.00
    05/19/2024 15:50      46    48.4     26.22        69.9      73.8      54.2       7      14     123     112    1014    0.00
    05/19/2024 16:00      46    48.5     26.22        69.6      73.8      54.2       5      10     129     116    1014    0.00
    05/19/2024 16:10      46    48.5     26.22        69.5      73.8      54.2       5      10     110     133    1014    0.00
    05/19/2024 16:20      48    48.2     26.22        69.3      73.8      54.2       5      12     105     102    1014    0.00
    05/19/2024 16:30      49    48.6     26.22        69.2      73.8      54.2       6      11     135     151    1014    0.00
    05/19/2024 16:40      49    48.6     26.22        68.9      73.8      54.2       7      11     144     137    1014    0.00
    05/19/2024 16:50      50    48.5     26.22        68.0      73.8      54.2       6      11     133     143    1014    0.00
    05/19/2024 17:00      51    48.6     26.22        67.3      73.8      54.2       6      10     130     136    1014    0.00
    05/19/2024 17:10      52    48.2     26.22        66.6      73.8      54.2       7      11     119     124    1014    0.00
    05/19/2024 17:20      51    47.9     26.22        66.3      73.8      54.2       6      10     112     115    1014    0.00
    05/19/2024 17:30      50    47.2     26.22        65.9      73.8      54.2       5      10      97      44    1014    0.00
    05/19/2024 17:40      50    46.6     26.22        65.9      73.8      54.2       5       9     101      91    1014    0.00
    05/19/2024 17:50      51    46.9     26.22        66.0      73.8      54.2       5      10     102      93    1014    0.00
    05/19/2024 18:00      51    46.9     26.22        65.5      73.8      54.2       5      11     105      93    1014    0.00
    05/19/2024 18:10      52    46.7     26.22        64.9      73.8      54.2       5       9     104     108    1014    0.00
    05/19/2024 18:20      52    46.6     26.22        64.3      73.8      54.2       4       8     110     109    1014    0.00
    05/19/2024 18:30      53    46.5     26.22        64.0      73.8      54.2       3       6     131     126    1014    0.00
    05/19/2024 18:40      55    46.6     26.22        63.5      73.8      54.2       1       6     153     128    1014    0.00
    05/19/2024 18:50      58    46.8     26.22        63.0      73.8      54.2       1       4     213     183    1014    0.00
    05/19/2024 19:00      60    47.6     26.22        62.2      73.8      54.2       0       2     258     285    1013    0.00
    05/19/2024 19:10      62    48.0     26.22        61.6      73.8      54.2       2       6     284     272    1014    0.00
    05/19/2024 19:20      63    48.0     26.22        60.8      73.8      54.2       4       9     277     299    1014    0.00
    05/19/2024 19:30      64    48.0     26.22        60.4      73.8      54.2       3       5     249     245    1013    0.00
    05/19/2024 19:40      65    47.9     26.22        60.0      73.8      54.2       3       7     257     254    1013    0.00
    05/19/2024 19:50      65    47.7     26.22        59.6      73.8      54.2       3       7     254     250    1013    0.00
    05/19/2024 20:00      65    47.6     26.22        59.3      73.8      54.2       4       8     253     254    1013    0.00
    05/19/2024 20:10      66    47.6     26.22        59.1      73.8      54.2       2       8     266     251    1013    0.00
    05/19/2024 20:20      66    47.6     26.22        59.0      73.8      54.2       4       6     255     249    1014    0.00
    05/19/2024 20:30      66    47.5     26.22        58.7      73.8      54.2       3       6     251     259    1014    0.00
    05/19/2024 20:40      67    47.6     26.22        58.5      73.8      54.2       0       3     262     245    1014    0.00
    05/19/2024 20:50      68    47.5     26.22        58.3      73.8      54.2       2       5     204     177    1014    0.00
    05/19/2024 21:00      68    47.5     26.22        58.0      73.8      54.2       4       6     180     182    1014    0.00
    05/19/2024 21:10      69    47.5     26.22        57.8      73.8      54.2       3       5     190     207    1014    0.00
    05/19/2024 21:20      69    47.4     26.22        57.5      73.8      54.2       3       5     182     185    1014    0.00
    05/19/2024 21:30      70    47.5     26.22        57.3      73.8      54.2       3       5     183     177    1014    0.00
    05/19/2024 21:40      70    47.4     26.22        57.0      73.8      54.2       2       4     179     151    1014    0.00
    05/19/2024 21:50      71    47.5     26.22        56.8      73.8      54.2       2       4     186     162    1014    0.00
    05/19/2024 22:00      72    47.3     26.22        56.5      73.8      54.2       3       7     190     189    1014    0.00
    05/19/2024 22:10      72    47.3     26.22        56.3      73.8      54.2       3       4     175     185    1014    0.00
    05/19/2024 22:20      72    47.2     26.22        56.0      73.8      54.2       2       4     198     183    1014    0.00
    05/19/2024 22:30      73    47.0     26.22        55.7      73.8      54.2       0       1     223     239    1014    0.00
    05/19/2024 22:40      73    46.9     26.22        55.4      73.8      54.2       0       0       0     230    1014    0.00
    05/19/2024 22:50      74    46.8     26.22        55.0      73.8      54.2       0       0       0     224    1014    0.00
    05/19/2024 23:00      75    47.0     26.22        54.7      73.8      54.2       0       0     212     217    1014    0.00
    05/19/2024 23:10      76    47.2     26.22        54.6      73.8      54.2       1       3      97     122    1014    0.00
    05/19/2024 23:20      77    47.6     26.22        54.7      73.8      54.2       1       3      99     110    1014    0.00
    05/19/2024 23:30      76    48.0     26.22        55.1      73.8      54.2       1       3      74      90    1014    0.00
    05/19/2024 23:40      75    47.8     26.22        55.3      73.8      54.2       1       3      82      94    1014    0.00
    05/19/2024 23:50      75    47.6     26.22        55.3      73.8      54.2       1       4      97     101    1014    0.00
    05/20/2024 00:00      76    47.6     26.22        55.1      73.8      54.2       0       2      81      96    1014    0.00
    05/20/2024 00:10      76    47.6     26.22        55.0      55.2      54.8       1       2      74      55    1014    0.00
    05/20/2024 00:20      77    47.5     26.22        54.8      55.2      54.5       1       2      76      75    1013    0.00
    05/20/2024 00:30      77    47.5     26.22        54.6      55.2      54.4       0       0       0      94    1013    0.00
    05/20/2024 00:40      78    47.4     26.22        54.4      55.2      54.2       2       4      88      95    1013    0.00
    05/20/2024 00:50      79    47.6     26.22        54.2      55.2      54.0       2       5     100     102    1013    0.00
    05/20/2024 01:00      79    47.6     26.22        54.0      55.2      53.8       0       4     104      74    1013    0.00
    05/20/2024 01:10      80    47.6     26.22        53.8      55.2      53.6       0       3      91      96    1013    0.00
    05/20/2024 01:20      81    47.8     26.22        53.7      55.2      53.5       1       3      87      79    1013    0.00
    05/20/2024 01:30      81    47.9     26.22        53.6      55.2      53.2       2       4      85      40    1013    0.00
    05/20/2024 01:40      82    48.0     26.22        53.4      55.2      53.2       2       4      73      96    1013    0.00
    05/20/2024 01:50      83    48.0     26.22        53.2      55.2      53.0       2       4      71      77    1013    0.00
    05/20/2024 02:00      83    48.0     26.22        53.1      55.2      52.9       2       4      73      53    1013    0.00
    05/20/2024 02:10      83    47.9     26.22        52.9      55.2      52.7       2       4      73      68    1013    0.00
    05/20/2024 02:20      83    48.0     26.22        52.9      55.2      52.7       2       4      82      84    1013    0.00
    05/20/2024 02:30      83    48.2     26.22        53.1      55.2      52.7       1       3     103      90    1013    0.00
    05/20/2024 02:40      83    48.3     26.22        53.3      55.2      52.7       1       3      96      90    1013    0.00
    05/20/2024 02:50      82    48.4     26.22        53.6      55.2      52.7       0       2     100      81    1013    0.00
    05/20/2024 03:00      82    48.4     26.22        53.8      55.2      52.7       0       3     144     183    1013    0.00
    05/20/2024 03:10      81    48.4     26.22        54.0      55.2      52.7       2       4     160     159    1013    0.00
    05/20/2024 03:20      80    48.4     26.22        54.1      55.2      52.7       3       5     155     142    1013    0.00
    05/20/2024 03:30      80    48.2     26.22        54.1      55.2      52.7       3       5     153     147    1013    0.00
    05/20/2024 03:40      80    48.3     26.22        54.2      55.2      52.7       3       4     148     168    1013    0.00
    05/20/2024 03:50      81    48.4     26.22        54.2      55.2      52.7       3       5     144     151    1013    0.00
    05/20/2024 04:00      81    48.5     26.22        54.2      55.2      52.7       3       6     147     167    1013    0.00
    05/20/2024 04:10      81    48.7     26.22        54.3      55.2      52.7       2       5     121     107    1013    0.00
    05/20/2024 04:20      81    48.8     26.22        54.3      55.2      52.7       2       6     151     170    1013    0.00
    05/20/2024 04:30      82    48.8     26.22        54.3      55.2      52.7       2       5     141     155    1013    0.00
    05/20/2024 04:40      82    48.9     26.22        54.3      55.2      52.7       2       4     140      85    1014    0.00
    05/20/2024 04:50      82    48.9     26.22        54.3      55.2      52.7       2       4     165     159    1014    0.00
    05/20/2024 05:00      82    49.0     26.22        54.3      55.2      52.7       1       4     128     161    1014    0.00
    05/20/2024 05:10      82    48.9     26.22        54.2      55.2      52.7       2       3      89     107    1014    0.00
    05/20/2024 05:20      83    49.0     26.22        54.2      55.2      52.7       2       3     118     101    1014    0.00
    05/20/2024 05:30      82    49.0     26.22        54.3      55.2      52.7       1       4     129     164    1014    0.00
    05/20/2024 05:40      82    48.9     26.22        54.3      55.2      52.7       1       3     157     173    1014    0.00
    05/20/2024 05:50      81    48.9     26.22        54.4      55.2      52.7       0       0       0     142    1014    0.00
    05/20/2024 06:00      81    48.9     26.22        54.5      55.2      52.7       3       5     160     174    1014    0.00
    05/20/2024 06:10      80    48.7     26.22        54.6      55.2      52.7       3       6     156     174    1014    0.00
    05/20/2024 06:20      80    48.6     26.22        54.7      55.2      52.7       2       5     153     169    1014    0.00
    05/20/2024 06:30      79    48.6     26.22        54.8      55.2      52.7       1       4     146     172    1014    0.00
    05/20/2024 06:40      79    48.5     26.22        54.9      55.2      52.7       2       4     137     160    1014    0.00
    05/20/2024 06:50      79    48.7     26.22        55.0      55.3      52.7       2       6     170     136    1015    0.00
    05/20/2024 07:00      78    48.5     26.22        55.1      55.3      52.7       2       5     158     147    1015    0.00
    05/20/2024 07:10      78    48.4     26.22        55.3      55.5      52.7       3       5     142     143    1015    0.00
    05/20/2024 07:20      78    48.6     26.22        55.4      55.6      52.7       2       5     121      90    1015    0.00
    05/20/2024 07:30      77    48.7     26.22        55.5      55.7      52.7       3       4     136     150    1015    0.00
    05/20/2024 07:40      77    48.8     26.22        55.7      56.1      52.7       3       7     155     155    1015    0.00
    05/20/2024 07:50      76    48.9     26.22        56.2      56.4      52.7       3       8     125     131    1015    0.00
    05/20/2024 08:00      75    48.7     26.22        56.3      56.5      52.7       3       5     145     168    1015    0.00
    05/20/2024 08:10      75    48.3     26.22        56.1      56.5      52.7       3       6     127     126    1015    0.00
    05/20/2024 08:20      75    48.4     26.22        56.2      56.5      52.7       5       9     151     161    1015    0.00
    05/20/2024 08:30      74    48.3     26.22        56.4      56.8      52.7       4       7     147     106    1015    0.00
    05/20/2024 08:40      72    48.5     26.22        57.1      57.4      52.7       4       8     168     168    1015    0.00
    05/20/2024 08:50      72    48.5     26.22        57.4      57.7      52.7       5       8     153     157    1015    0.00
    05/20/2024 09:00      71    48.5     26.22        57.7      58.0      52.7       3       7     136     140    1015    0.00
    05/20/2024 09:10      71    48.8     26.22        58.0      58.5      52.7       3       5     166     170    1015    0.00
    05/20/2024 09:20      70    48.8     26.22        58.4      58.6      52.7       2       7     157     155    1015    0.00
    05/20/2024 09:30      68    48.7     26.22        58.7      59.2      52.7       2       4      92     110    1015    0.00
    05/20/2024 09:40      67    48.5     26.22        59.1      59.4      52.7       3       7      79     106    1015    0.00
    05/20/2024 09:50      65    48.7     26.22        59.7      60.5      52.7       2       5     131     150    1015    0.00
    05/20/2024 10:00      62    48.6     26.22        60.8      61.2      52.7       2       5     154     154    1015    0.00
    05/20/2024 10:10      64    48.2     26.22        60.6      61.2      52.7       3       5     166     177    1015    0.00
    05/20/2024 10:20      64    48.1     26.22        60.7      61.2      52.7       1       5     100     120    1015    0.00
    05/20/2024 10:30      64    48.1     26.22        60.6      61.2      52.7       2       5     111      99    1015    0.00
    05/20/2024 10:40      62    48.6     26.22        61.4      62.0      52.7       2       4     188     158    1015    0.00
    05/20/2024 10:50      60    48.8     26.22        62.4      62.9      52.7       2       4     226     213    1015    0.00
    05/20/2024 11:00      58    48.5     26.22        63.4      64.1      52.7       0       4     244     196    1015    0.00
    05/20/2024 11:10      53    48.6     26.22        64.7      65.1      52.7       2       5     151      92    1015    0.00
    05/20/2024 11:20      54    47.4     26.22        63.8      65.1      52.7       2       5      55     272    1015    0.00
    05/20/2024 11:30      54    47.4     26.22        63.7      65.1      52.7       2       4     186     254    1015    0.00
    05/20/2024 11:40      53    47.8     26.22        65.0      65.4      52.7       2       7     194     179    1014    0.00
    05/20/2024 11:50      52    47.7     26.22        65.4      65.7      52.7       3       6     171     166    1014    0.00
    05/20/2024 12:00      50    47.6     26.22        66.0      66.4      52.7       3       9     145     161    1014    0.00
    05/20/2024 12:10      50    47.3     26.22        66.5      66.8      52.7       3       7     196     162    1014    0.00
    05/20/2024 12:20      51    47.5     26.22        66.7      67.4      52.7       2       5     225      66    1014    0.00
    05/20/2024 12:30      50    47.5     26.22        66.7      67.4      52.7       4       8     158     177    1014    0.00
    05/20/2024 12:40      52    48.0     26.22        66.4      68.0      52.7       4       9     155     106    1014    0.00
    05/20/2024 12:50      47    47.6     26.22        68.0      68.4      52.7       3       6     119     110    1014    0.00
    05/20/2024 13:00      45    47.9     26.22        68.2      68.9      52.7       5      10     164     183    1014    0.00
    05/20/2024 13:10      48    47.5     26.22        67.8      68.9      52.7       4       8     183     202    1014    0.00
    05/20/2024 13:20      48    47.6     26.22        68.9      69.5      52.7       2       5     172      86    1014    0.00
    05/20/2024 13:30      48    48.0     26.22        69.2      69.7      52.7       3       6     194     178    1014    0.00
    05/20/2024 13:40      50    47.6     26.22        67.6      69.7      52.7       4       9     123     142    1013    0.00
    05/20/2024 13:50      49    47.9     26.22        67.0      69.7      52.7       4       9     151     172    1013    0.00
    05/20/2024 14:00      51    48.0     26.22        67.0      69.7      52.7       3       7     195     154    1013    0.00
    05/20/2024 14:10      49    48.0     26.22        68.1      69.7      52.7       2       4     204     206    1013    0.00
    05/20/2024 14:20      49    48.1     26.22        68.4      69.7      52.7       4       8     143     158    1013    0.00
    05/20/2024 14:30      51    47.7     26.22        67.3      69.7      52.7       3       6     154     174    1013    0.00
    05/20/2024 14:40      48    48.4     26.22        67.8      69.7      52.7       1       5     200     183    1013    0.00
    05/20/2024 14:50      49    48.0     26.22        68.0      69.7      52.7       1       4     250     274    1013    0.00
    05/20/2024 15:00      49    47.9     26.22        67.9      69.7      52.7       2       8     123     156    1013    0.00
    05/20/2024 15:10      49    48.2     26.22        67.9      69.7      52.7       3       6     180     169    1013    0.00
    05/20/2024 15:20      51    48.2     26.22        67.6      69.7      52.7       2       6     197     187    1012    0.00
    05/20/2024 15:30      49    49.0     26.22        68.5      69.7      52.7       4      11     203     249    1012    0.00
    05/20/2024 15:40      48    49.4     26.22        70.0      70.4      52.7       3       8     206     174    1012    0.00
    05/20/2024 15:50      49    48.8     26.22        69.2      70.4      52.7       6      11     175     163    1012    0.00
    05/20/2024 16:00      52    48.3     26.22        67.5      70.4      52.7       7      12     167     142    1012    0.00
    05/20/2024 16:10      50    48.9     26.22        67.2      70.4      52.7       4      10     196     162    1012    0.00
    05/20/2024 16:20      51    48.5     26.22        67.1      70.4      52.7       4      10     280     232    1012    0.00
    05/20/2024 16:30      52    48.9     26.22        66.8      70.4      52.7       5      10     257     244    1012    0.00
    05/20/2024 16:40      52    48.6     26.22        67.1      70.4      52.7       4       9     268     301    1012    0.00
    05/20/2024 16:50      51    48.7     26.22        66.9      70.4      52.7       5      11     244     251    1012    0.00
    05/20/2024 17:00      52    48.5     26.22        67.2      70.4      52.7       5      12     247     252    1012    0.00
    05/20/2024 17:10      51    48.5     26.22        66.5      70.4      52.7       4      11     239     263    1012    0.00
    05/20/2024 17:20      54    48.0     26.22        65.9      70.4      52.7       5      11     245     246    1012    0.00
    05/20/2024 17:30      55    47.9     26.22        64.8      70.4      52.7       5      10     254     259    1012    0.00
    05/20/2024 17:40      57    47.9     26.22        63.9      70.4      52.7       5      10     257     252    1012    0.00
    05/20/2024 17:50      58    47.8     26.22        63.1      70.4      52.7       5      10     249     266    1012    0.00
    05/20/2024 18:00      59    47.6     26.22        62.4      70.4      52.7       5       9     265     269    1012    0.00
    05/20/2024 18:10      60    47.4     26.22        61.7      70.4      52.7       4      10     268     250    1012    0.00
    05/20/2024 18:20      61    47.3     26.22        61.1      70.4      52.7       5      11     258     255    1012    0.00
    05/20/2024 18:30      62    47.1     26.22        60.4      70.4      52.7       4       8     276     247    1012    0.00
    05/20/2024 18:40      63    46.9     26.22        59.7      70.4      52.7       4      10     270     285    1012    0.00
    05/20/2024 18:50      64    46.8     26.22        59.3      70.4      52.7       4       9     266     257    1012    0.00
    05/20/2024 19:00      65    46.7     26.22        58.8      70.4      52.7       4       9     262     257    1012    0.00
    05/20/2024 19:10      65    46.7     26.22        58.5      70.4      52.7       4      10     268     251    1012    0.00
    05/20/2024 19:20      66    46.8     26.22        58.1      70.4      52.7       4      10     266     262    1012    0.00
    05/20/2024 19:30      67    46.8     26.22        57.8      70.4      52.7       4       9     255     251    1012    0.00
    05/20/2024 19:40      68    46.8     26.22        57.5      70.4      52.7       5      10     251     250    1012    0.00
    05/20/2024 19:50      68    46.8     26.22        57.3      70.4      52.7       3       7     259     256    1012    0.00
    05/20/2024 20:00      68    46.6     26.22        57.0      70.4      52.7       3       8     265     251    1013    0.00
    05/20/2024 20:10      68    46.5     26.22        56.7      70.4      52.7       2       5     270     292    1013    0.00
    05/20/2024 20:20      69    46.3     26.22        56.5      70.4      52.7       3       7     280     253    1013    0.00
    05/20/2024 20:30      69    46.4     26.22        56.2      70.4      52.7       2       5     272     260    1013    0.00
    05/20/2024 20:40      70    46.3     26.22        56.0      70.4      52.7       2       3     285     284    1013    0.00
    05/20/2024 20:50      71    46.2     26.22        55.7      70.4      52.7       2       4     288     287    1013    0.00
    05/20/2024 21:00      71    46.1     26.22        55.4      70.4      52.7       2       5     269     251    1013    0.00
    05/20/2024 21:10      71    46.0     26.22        55.2      70.4      52.7       1       4     262     248    1013    0.00
    05/20/2024 21:20      72    46.0     26.22        55.0      70.4      52.7       1       3     264     296    1013    0.00
    05/20/2024 21:30      72    46.0     26.22        54.8      70.4      52.7       1       2     277     259    1013    0.00
    05/20/2024 21:40      73    46.0     26.22        54.6      70.4      52.7       1       3     274     251    1013    0.00
    05/20/2024 21:50      73    45.7     26.22        54.3      70.4      52.7       0       3     236     255    1013    0.00
    05/20/2024 22:00      73    45.4     26.22        53.8      70.4      52.7       1       2     227     216    1013    0.00
    05/20/2024 22:10      75    45.4     26.22        53.4      70.4      52.7       1       4     226     250    1013    0.00
    05/20/2024 22:20      76    45.5     26.22        53.1      70.4      52.7       1       3     216     174    1013    0.00
    05/20/2024 22:30      77    45.8     26.22        53.0      70.4      52.7       1       4     207     189    1013    0.00
    05/20/2024 22:40      78    46.3     26.22        53.1      70.4      52.7       0       1     234     211    1013    0.00
    05/20/2024 22:50      77    46.7     26.22        53.5      70.4      52.7       0       0       0     255    1013    0.00
    05/20/2024 23:00      76    46.8     26.22        53.9      70.4      52.7       0       0       0     297    1013    0.00
    05/20/2024 23:10      75    46.7     26.22        54.2      70.4      52.7       0       0       0     262    1013    0.00
    05/20/2024 23:20      75    46.7     26.22        54.4      70.4      52.7       0       0       0     263    1013    0.00
    05/20/2024 23:30      75    46.8     26.22        54.5      70.4      52.7       0       0       0     220    1013    0.00
    05/20/2024 23:40      75    46.9     26.22        54.7      70.4      52.7       0       0       0     242    1013    0.00
    05/20/2024 23:50      74    46.9     26.22        54.8      70.4      52.7       1       3     173     151    1013    0.00
    05/21/2024 00:00      74    46.8     26.22        54.8      70.4      52.7       2       3     158     175    1013    0.00
    05/21/2024 00:10      74    46.7     26.22        54.9      55.0      54.7       2       3     159     175    1013    0.00
    05/21/2024 00:20      73    46.5     26.22        54.9      55.1      54.6       0       2     106     104    1013    0.00
    05/21/2024 00:30      73    46.7     26.22        55.0      55.1      54.6       0       0       0     153    1013    0.00
    05/21/2024 00:40      73    46.7     26.22        55.1      55.3      54.6       0       2     107     112    1013    0.00
    05/21/2024 00:50      73    46.8     26.22        55.3      55.4      54.6       0       2      74     121    1013    0.00
    05/21/2024 01:00      72    46.7     26.22        55.3      55.5      54.6       0       1      48      27    1013    0.00
    05/21/2024 01:10      73    46.8     26.22        55.5      55.7      54.6       0       2     110      94    1013    0.00
    05/21/2024 01:20      72    46.9     26.22        55.6      55.8      54.6       0       0       0     100    1013    0.00
    05/21/2024 01:30      72    46.9     26.22        55.6      55.8      54.6       0       0       0      63    1013    0.00
    05/21/2024 01:40      72    46.9     26.22        55.6      55.8      54.6       0       0       0      87    1013    0.00
    05/21/2024 01:50      73    46.9     26.22        55.6      55.8      54.6       0       0       0     183    1013    0.00
    05/21/2024 02:00      72    46.9     26.22        55.5      55.8      54.6       0       0       0     159    1013    0.00
    05/21/2024 02:10      72    46.6     26.22        55.3      55.8      54.6       0       0       0     221    1013    0.00
    05/21/2024 02:20      73    46.5     26.22        55.0      55.8      54.6       0       0       0     299    1013    0.00
    05/21/2024 02:30      74    46.3     26.22        54.6      55.8      54.2       0       0       0     184    1013    0.00
    05/21/2024 02:40      75    46.1     26.22        54.0      55.8      53.7       0       0       0     187    1013    0.00
    05/21/2024 02:50      76    46.2     26.22        53.6      55.8      53.4       0       0       0      72    1013    0.00
    05/21/2024 03:00      77    46.2     26.22        53.3      55.8      53.0       0       0       0     252    1013    0.00
    05/21/2024 03:10      78    46.0     26.22        52.9      55.8      52.7       0       0       0     239    1013    0.00
    05/21/2024 03:20      79    46.0     26.22        52.6      55.8      52.3       0       0       0     287    1013    0.00
    05/21/2024 03:30      80    45.9     26.22        52.2      55.8      52.0       0       0       0     181    1013    0.00
    05/21/2024 03:40      80    46.1     26.22        52.1      55.8      51.8       0       0       0     191    1013    0.00
    05/21/2024 03:50      81    46.3     26.22        52.0      55.8      51.8       0       0       0     209    1013    0.00
    05/21/2024 04:00      81    46.0     26.22        51.7      55.8      51.5       0       0       0     210    1013    0.00
    05/21/2024 04:10      81    46.0     26.22        51.5      55.8      51.3       0       0       0     144    1012    0.00
    05/21/2024 04:20      82    46.0     26.22        51.4      55.8      51.2       0       0       0      63    1012    0.00
    05/21/2024 04:30      82    46.3     26.22        51.5      55.8      51.2       0       0      98     101    1012    0.00
    05/21/2024 04:40      83    46.9     26.22        51.9      55.8      51.2       0       0       0      93    1012    0.00
    05/21/2024 04:50      83    47.4     26.22        52.3      55.8      51.2       0       2     172     178    1013    0.00
    05/21/2024 05:00      83    47.5     26.22        52.5      55.8      51.2       0       2     165     167    1013    0.00
    05/21/2024 05:10      83    47.8     26.22        52.7      55.8      51.2       0       2     106     119    1013    0.00
    05/21/2024 05:20      83    48.0     26.22        53.1      55.8      51.2       0       0       0      85    1013    0.00
    05/21/2024 05:30      82    48.3     26.22        53.5      55.8      51.2       0       2     105      95    1013    0.00
    05/21/2024 05:40      81    48.3     26.22        53.9      55.8      51.2       0       0       0     184    1013    0.00
    05/21/2024 05:50      80    48.3     26.22        54.3      55.8      51.2       0       0       0     174    1013    0.00
    05/21/2024 06:00      79    48.5     26.22        54.7      55.8      51.2       0       0       0     244    1013    0.00
    05/21/2024 06:10      79    48.7     26.22        55.2      55.8      51.2       0       3     255     257    1013    0.00
    05/21/2024 06:20      78    48.9     26.22        55.5      56.0      51.2       2       3     249     246    1013    0.00
    05/21/2024 06:30      75    49.5     26.22        56.7      57.6      51.2       2       4     249     253    1013    0.00
    05/21/2024 06:40      71    49.4     26.22        58.1      58.8      51.2       2       4     232     260    1013    0.00
    05/21/2024 06:50      66    48.8     26.22        59.1      59.6      51.2       2       4     244     242    1013    0.00
    05/21/2024 07:00      67    48.1     26.22        59.3      59.6      51.2       1       3     213     173    1013    0.00
    05/21/2024 07:10      65    47.6     26.22        59.1      59.6      51.2       1       3     147     180    1013    0.00
    05/21/2024 07:20      65    47.0     26.22        58.9      59.6      51.2       0       3     147     166    1013    0.00
    05/21/2024 07:30      66    47.3     26.22        59.0      59.6      51.2       2       4     153     164    1013    0.00
    05/21/2024 07:40      64    47.7     26.22        59.5      60.0      51.2       2       6     161     183    1013    0.00
    05/21/2024 07:50      64    47.4     26.22        59.7      60.1      51.2       2       4     124     182    1013    0.00
    05/21/2024 08:00      64    47.3     26.22        59.8      60.2      51.2       3       6     124     169    1013    0.00
    05/21/2024 08:10      64    47.4     26.22        59.8      60.6      51.2       3       5     148     104    1013    0.00
    05/21/2024 08:20      61    47.6     26.22        60.7      61.2      51.2       3       7     141     138    1013    0.00
    05/21/2024 08:30      61    47.4     26.22        60.6      61.4      51.2       2       5     160     120    1013    0.00
    05/21/2024 08:40      57    48.0     26.22        62.3      62.9      51.2       3       6     127      83    1013    0.00
    05/21/2024 08:50      57    47.9     26.22        63.6      64.5      51.2       2       4     156     106    1013    0.00
    05/21/2024 09:00      53    48.0     26.22        64.3      65.0      51.2       3       6     129      95    1013    0.00
    05/21/2024 09:10      54    46.9     26.22        64.0      65.0      51.2       2       7      79     116    1013    0.00
    05/21/2024 09:20      54    47.1     26.22        64.7      65.3      51.2       2       6      91     112    1013    0.00
    05/21/2024 09:30      54    47.1     26.22        65.1      65.6      51.2       2       9     109     150    1013    0.00
    05/21/2024 09:40      50    47.9     26.22        66.2      67.0      51.2       4      10     122     102    1013    0.00
    05/21/2024 09:50      51    46.7     26.22        65.9      67.0      51.2       3       9      63      51    1013    0.00
    05/21/2024 10:00      49    47.1     26.22        65.7      67.0      51.2       2       6     105     106    1013    0.00
    05/21/2024 10:10      48    46.8     26.22        66.6      67.0      51.2       2       5      84      27    1013    0.00
    05/21/2024 10:20      47    46.4     26.22        67.0      67.4      51.2       2       6      75      71    1013    0.00
    05/21/2024 10:30      47    47.0     26.22        67.7      68.6      51.2       3       7     114     149    1013    0.00
    05/21/2024 10:40      45    47.8     26.22        69.4      69.9      51.2       4       8     187     177    1013    0.00
    05/21/2024 10:50      48    47.2     26.22        69.1      69.9      51.2       4       9     125     121    1013    0.00
    05/21/2024 11:00      44    47.7     26.22        70.0      70.7      51.2       4       7     195     158    1013    0.00
    05/21/2024 11:10      45    47.3     26.22        69.8      70.7      51.2       4       9      97     110    1013    0.00
    05/21/2024 11:20      43    47.9     26.22        70.2      70.8      51.2       4       8     110     147    1013    0.00
    05/21/2024 11:30      45    47.8     26.22        70.9      71.3      51.2       4       8     148     141    1013    0.00
    05/21/2024 11:40      43    48.1     26.22        70.7      71.3      51.2       5      10     122     103    1013    0.00
    05/21/2024 11:50      44    47.3     26.22        70.4      71.3      51.2       3       8      68     104    1013    0.00
    05/21/2024 12:00      42    48.0     26.22        71.5      72.2      51.2       3       7     113     133    1013    0.00
    05/21/2024 12:10      42    48.5     26.22        72.2      73.0      51.2       5      10     128      64    1013    0.00
    05/21/2024 12:20      42    48.1     26.22        72.3      73.0      51.2       5       9     132     174    1013    0.00
    05/21/2024 12:30      41    47.7     26.22        73.0      73.8      51.2       3       7      95      92    1013    0.00
    05/21/2024 12:40      42    47.9     26.22        72.0      73.8      51.2       4       8      92     109    1012    0.00
    05/21/2024 12:50      45    48.2     26.22        72.3      73.8      51.2       5       9     122     106    1012    0.00
    05/21/2024 13:00      41    49.0     26.22        73.4      74.2      51.2       7      14     147     170    1012    0.00
    05/21/2024 13:10      44    48.7     26.22        72.8      74.2      51.2       8      14     139     168    1012    0.00
    05/21/2024 13:20      43    49.0     26.22        72.8      74.2      51.2       7      12     146     158    1012    0.00
    05/21/2024 13:30      41    49.3     26.22        72.6      74.2      51.2       5      10     160     171    1012    0.00
    05/21/2024 13:40      42    49.1     26.22        73.6      74.7      51.2       4       9     164     165    1012    0.00
    05/21/2024 13:50      40    49.6     26.22        75.2      75.7      51.2       6      10     164     148    1012    0.00
    05/21/2024 14:00      41    48.7     26.22        74.4      75.7      51.2       4       9     161     117    1012    0.00
    05/21/2024 14:10      40    49.0     26.22        75.3      75.7      51.2       2       5     151     145    1012    0.00
    05/21/2024 14:20      39    48.8     26.22        75.3      75.7      51.2       3       8     157     147    1012    0.00
    05/21/2024 14:30      40    49.0     26.22        75.3      76.3      51.2       3       7     169     183    1012    0.00
    05/21/2024 14:40      38    48.5     26.22        75.5      76.3      51.2       4       8     153     138    1012    0.00
    05/21/2024 14:50      41    49.0     26.22        75.1      76.3      51.2       3       5     178     194    1012    0.00
    05/21/2024 15:00      39    49.3     26.22        76.0      76.6      51.2       4       8     178     141    1011    0.00
    05/21/2024 15:10      39    48.3     26.22        76.0      76.9      51.2       5      11     137     114    1011    0.00
    05/21/2024 15:20      39    48.9     26.22        74.8      76.9      51.2       5      10     115     116    1011    0.00
    05/21/2024 15:30      40    49.0     26.22        74.6      76.9      51.2       6      12     131     151    1011    0.00
    05/21/2024 15:40      41    49.1     26.22        74.4      76.9      51.2       6      10     132      64    1011    0.00
    05/21/2024 15:50      42    48.7     26.22        73.5      76.9      51.2       6      10     120      99    1011    0.00
    05/21/2024 16:00      42    48.8     26.22        73.5      76.9      51.2       5       8     117     102    1011    0.00
    05/21/2024 16:10      42    48.9     26.22        73.4      76.9      51.2       5       9     133     137    1011    0.00
    05/21/2024 16:20      43    48.7     26.22        72.4      76.9      51.2       6      10     130     133    1011    0.00
    05/21/2024 16:30      45    48.6     26.22        72.3      76.9      51.2       6      11     117     104    1011    0.00
    05/21/2024 16:40      45    48.5     26.22        71.2      76.9      51.2       7      14     112     118    1011    0.00
    05/21/2024 16:50      45    48.9     26.22        71.0      76.9      51.2       5       9     130      90    1011    0.00
    05/21/2024 17:00      47    48.6     26.22        70.4      76.9      51.2       6      12     118     123    1011    0.00
    05/21/2024 17:10      47    48.7     26.22        69.7      76.9      51.2       6      11     120     122    1011    0.00
    05/21/2024 17:20      48    48.9     26.22        69.6      76.9      51.2       5       9     121     113    1011    0.00
    05/21/2024 17:30      48    48.6     26.22        69.3      76.9      51.2       4       8      99     110    1011    0.00
    05/21/2024 17:40      49    48.6     26.22        68.9      76.9      51.2       5       8      96      99    1011    0.00
    05/21/2024 17:50      50    48.9     26.22        68.5      76.9      51.2       4       9     106     109    1011    0.00
    05/21/2024 18:00      50    48.6     26.22        68.0      76.9      51.2       5       9      99     102    1011    0.00
    05/21/2024 18:10      50    48.4     26.22        67.6      76.9      51.2       5       8      95      93    1011    0.00
    05/21/2024 18:20      51    48.3     26.22        67.2      76.9      51.2       5       9      98     112    1012    0.00
    05/21/2024 18:30      52    48.2     26.22        66.8      76.9      51.2       4       7      86      86    1012    0.00
    05/21/2024 18:40      52    48.4     26.22        66.6      76.9      51.2       3       7      97     101    1012    0.00
    05/21/2024 18:50      53    48.3     26.22        66.1      76.9      51.2       4       8      96      92    1012    0.00
    05/21/2024 19:00      55    48.4     26.22        65.5      76.9      51.2       4       7     109     100    1012    0.00
    05/21/2024 19:10      56    48.4     26.22        64.9      76.9      51.2       3       7     103      81    1012    0.00
    05/21/2024 19:20      56    48.5     26.22        64.5      76.9      51.2       3       7     107     117    1012    0.00
    05/21/2024 19:30      57    48.3     26.22        64.0      76.9      51.2       3       7      90      81    1012    0.00
    05/21/2024 19:40      58    48.2     26.22        63.3      76.9      51.2       4       7      89      86    1012    0.00
    05/21/2024 19:50      60    48.2     26.22        62.7      76.9      51.2       3       6      90      96    1012    0.00
    05/21/2024 20:00      61    48.2     26.22        62.2      76.9      51.2       3       6      82      88    1012    0.00
    05/21/2024 20:10      61    48.1     26.22        61.7      76.9      51.2       3       7      89      93    1013    0.00
    05/21/2024 20:20      62    48.0     26.22        61.3      76.9      51.2       2       6      80      81    1013    0.00
    05/21/2024 20:30      63    48.0     26.22        60.8      76.9      51.2       3       7      87      85    1013    0.00
    05/21/2024 20:40      64    48.0     26.22        60.4      76.9      51.2       3       8      90     103    1013    0.00
    05/21/2024 20:50      65    48.1     26.22        60.1      76.9      51.2       3       6      72      65    1013    0.00
    05/21/2024 21:00      65    48.1     26.22        59.8      76.9      51.2       3       6      63      68    1013    0.00
    05/21/2024 21:10      66    48.0     26.22        59.6      76.9      51.2       3       5      73      89    1013    0.00
    05/21/2024 21:20      66    48.0     26.22        59.5      76.9      51.2       3       6      77      55    1013    0.00
    05/21/2024 21:30      67    48.0     26.22        59.1      76.9      51.2       2       4      74      97    1013    0.00
    05/21/2024 21:40      67    48.1     26.22        58.9      76.9      51.2       2       5      57      69    1013    0.00
    05/21/2024 21:50      68    48.0     26.22        58.6      76.9      51.2       2       5      65      46    1013    0.00
    05/21/2024 22:00      69    48.0     26.22        58.3      76.9      51.2       2       4      68      46    1013    0.00
    05/21/2024 22:10      70    48.1     26.22        58.1      76.9      51.2       1       3      67      97    1013    0.00
    05/21/2024 22:20      70    48.3     26.22        58.0      76.9      51.2       2       4      58      63    1013    0.00
    05/21/2024 22:30      71    48.4     26.22        57.9      76.9      51.2       2       3      61      59    1013    0.00
    05/21/2024 22:40      71    48.3     26.22        57.8      76.9      51.2       2       4      74      58    1013    0.00
    05/21/2024 22:50      72    48.4     26.22        57.5      76.9      51.2       2       4      65      50    1013    0.00
    05/21/2024 23:00      72    48.5     26.22        57.4      76.9      51.2       2       5      69      70    1013    0.00
    05/21/2024 23:10      73    48.4     26.22        57.1      76.9      51.2       2       4      68      60    1013    0.00
    05/21/2024 23:20      73    48.4     26.22        56.9      76.9      51.2       2       4      57      38    1013    0.00
    05/21/2024 23:30      73    48.3     26.22        56.7      76.9      51.2       2       3      53      57    1013    0.00
    05/21/2024 23:40      74    48.3     26.22        56.6      76.9      51.2       1       4      61      64    1013    0.00
    05/21/2024 23:50      74    48.3     26.22        56.5      76.9      51.2       1       3      69      66    1013    0.00
    05/22/2024 00:00      75    48.4     26.22        56.3      76.9      51.2       2       4      58      45    1013    0.00
    05/22/2024 00:10      76    48.4     26.22        56.1      56.4      55.8       0       3      89      98    1013    0.00
    05/22/2024 00:20      76    48.4     26.22        55.8      56.4      55.6       1       3      94      76    1013    0.00
    05/22/2024 00:30      77    48.5     26.22        55.7      56.4      55.5       0       2      80      51    1013    0.00
    05/22/2024 00:40      78    48.7     26.22        55.6      56.4      55.4       1       2      65      60    1013    0.00
    05/22/2024 00:50      78    48.6     26.22        55.5      56.4      55.2       1       3      81      71    1013    0.00
    05/22/2024 01:00      78    48.6     26.22        55.3      56.4      55.1       0       2      77      81    1013    0.00
    05/22/2024 01:10      78    48.2     26.22        54.9      56.4      54.7       0       1     174     169    1012    0.00
    05/22/2024 01:20      79    48.0     26.22        54.5      56.4      54.1       0       3     159     168    1012    0.00
    05/22/2024 01:30      80    47.9     26.22        54.2      56.4      54.1       0       3      87     103    1012    0.00
    05/22/2024 01:40      81    48.3     26.22        54.2      56.4      54.0       0       0       0      48    1012    0.00
    05/22/2024 01:50      80    48.3     26.22        54.2      56.4      53.9       0       0       0     107    1012    0.00
    05/22/2024 02:00      81    47.9     26.22        53.8      56.4      53.5       0       0       0      44    1012    0.00
    05/22/2024 02:10      82    48.0     26.22        53.6      56.4      53.3       0       0       0     202    1012    0.00
    05/22/2024 02:20      82    48.0     26.22        53.5      56.4      53.3       0       0       0      64    1012    0.00
    05/22/2024 02:30      82    47.9     26.22        53.2      56.4      53.0       0       0      58      58    1012    0.00
    05/22/2024 02:40      83    47.9     26.22        53.1      56.4      52.8       0       0       0      66    1012    0.00
    05/22/2024 02:50      83    47.8     26.22        52.9      56.4      52.7       0       1      80      73    1012    0.00
    05/22/2024 03:00      84    48.1     26.22        53.0      56.4      52.7       0       2      77      75    1012    0.00
    05/22/2024 03:10      83    48.4     26.22        53.3      56.4      52.7       0       2      91     116    1012    0.00
    05/22/2024 03:20      83    48.1     26.22        53.0      56.4      52.7       0       3     100     102    1012    0.00
    05/22/2024 03:30      83    47.9     26.22        52.8      56.4      52.6       0       2      83     101    1012    0.00
    05/22/2024 03:40      84    47.7     26.22        52.5      56.4      52.3       0       2      86      88    1012    0.00
    05/22/2024 03:50      84    47.7     26.22        52.4      56.4      52.2       0       2      82      98    1012    0.00
    05/22/2024 04:00      84    47.7     26.22        52.3      56.4      52.1       0       3     105     115    1013    0.00
    05/22/2024 04:10      85    47.8     26.22        52.4      56.4      52.1       2       4     104     111    1013    0.00
    05/22/2024 04:20      85    47.7     26.22        52.2      56.4      52.0       2       4      97     100    1013    0.00
    05/22/2024 04:30      85    47.6     26.22        52.0      56.4      51.8       3       6      89      92    1013    0.00
    05/22/2024 04:40      86    47.6     26.22        51.9      56.4      51.7       2       5      91     107    1013    0.00
    05/22/2024 04:50      86    47.8     26.22        51.9      56.4      51.7       3       5      94      47    1013    0.00
    05/22/2024 05:00      87    48.0     26.22        52.0      56.4      51.7       2       4      98     100    1013    0.00
    05/22/2024 05:10      87    48.2     26.22        52.1      56.4      51.7       2       4      82      87    1013    0.00
    05/22/2024 05:20      87    48.3     26.22        52.0      56.4      51.7       2       6      78      61    1013    0.00
    05/22/2024 05:30      87    48.4     26.22        52.1      56.4      51.7       2       5      93      88    1013    0.00
    05/22/2024 05:40      87    48.6     26.22        52.3      56.4      51.7       2       4     112     116    1013    0.00
    05/22/2024 05:50      87    48.9     26.22        52.5      56.4      51.7       3       6     101     108    1013    0.00
    05/22/2024 06:00      87    49.0     26.22        52.6      56.4      51.7       4       7     110     106    1013    0.00
    05/22/2024 06:10      87    49.2     26.22        52.8      56.4      51.7       0       3     141     144    1014    0.00
    05/22/2024 06:20      87    49.4     26.22        53.0      56.4      51.7       0       3     133     118    1014    0.00
    05/22/2024 06:30      87    49.4     26.22        53.2      56.4      51.7       0       3      82      78    1014    0.00
    05/22/2024 06:40      87    49.3     26.22        53.1      56.4      51.7       3       5     165     160    1014    0.00
    05/22/2024 06:50      87    49.3     26.22        53.1      56.4      51.7       3       5     164     167    1014    0.00
    05/22/2024 07:00      87    49.4     26.22        53.2      56.4      51.7       3       5     169     164    1014    0.00
    05/22/2024 07:10      87    49.6     26.22        53.5      56.4      51.7       3       5     164     175    1014    0.00
    05/22/2024 07:20      86    49.6     26.22        53.5      56.4      51.7       2       4     153     153    1014    0.00
    05/22/2024 07:30      87    49.8     26.22        53.7      56.4      51.7       2       4     164     151    1014    0.00
    05/22/2024 07:40      86    50.3     26.22        54.3      56.4      51.7       2       4     152     165    1014    0.00
    05/22/2024 07:50      86    50.2     26.22        54.3      56.4      51.7       3       5     168     160    1014    0.00
    05/22/2024 08:00      85    50.4     26.22        54.7      56.4      51.7       2       4     182     210    1014    0.00
    05/22/2024 08:10      85    50.6     26.22        55.1      56.4      51.7       2       4     196     207    1014    0.00
    05/22/2024 08:20      83    50.7     26.22        55.4      56.4      51.7       3       6     162     165    1014    0.00
    05/22/2024 08:30      83    50.2     26.22        55.4      56.4      51.7       2       6     171     163    1014    0.00
    05/22/2024 08:40      82    50.3     26.22        55.6      56.4      51.7       1       4     178     124    1014    0.00
    05/22/2024 08:50      81    50.0     26.22        55.6      56.4      51.7       3       7     111     147    1014    0.00
    05/22/2024 09:00      81    50.2     26.22        55.9      56.4      51.7       2       4     175     150    1014    0.00
    05/22/2024 09:10      80    50.6     26.22        56.6      56.9      51.7       1       3     187     239    1014    0.00
    05/22/2024 09:20      78    50.2     26.22        56.8      57.1      51.7       2       4     100      92    1014    0.00
    05/22/2024 09:30      78    49.6     26.22        56.5      57.1      51.7       2       4      50      60    1014    0.00
    05/22/2024 09:40      78    50.1     26.22        56.8      57.3      51.7       0       3     295      -0    1014    0.00
    05/22/2024 09:50      75    50.4     26.22        57.6      58.0      51.7       2       4     106     104    1014    0.00
    05/22/2024 10:00      74    49.9     26.22        57.9      58.1      51.7       1       4      51     106    1014    0.00
    05/22/2024 10:10      74    50.2     26.22        58.3      58.8      51.7       0       3     282     164    1014    0.00
    05/22/2024 10:20      71    50.5     26.22        59.2      59.6      51.7       2       5     103      88    1014    0.00
    05/22/2024 10:30      72    50.2     26.22        59.3      59.8      51.7       0       1     109      75    1014    0.00
    05/22/2024 10:40      70    51.0     26.22        60.4      61.2      51.7       3       6     181     169    1014    0.00
    05/22/2024 10:50      68    51.0     26.22        61.4      61.8      51.7       2       5     212     164    1014    0.00
    05/22/2024 11:00      66    51.2     26.22        62.1      62.7      51.7       3       5     231     258    1014    0.00
    05/22/2024 11:10      65    51.2     26.22        63.0      63.6      51.7       2       6     218     165    1014    0.00
    05/22/2024 11:20      64    51.1     26.22        63.5      64.0      51.7       2       6     171     179    1014    0.00
    05/22/2024 11:30      63    50.7     26.22        63.3      64.0      51.7       3       7     152      91    1014    0.00
    05/22/2024 11:40      66    50.5     26.22        63.0      64.0      51.7       3       6     130     138    1014    0.00
    05/22/2024 11:50      62    50.8     26.22        64.1      64.5      51.7       3       8      99      77    1014    0.00
    05/22/2024 12:00      62    51.0     26.22        64.2      65.8      51.7       3       8     119     169    1014    0.00
    05/22/2024 12:10      60    51.0     26.22        65.8      66.5      51.7       2       4     127      86    1014    0.00
    05/22/2024 12:20      58    50.9     26.22        65.5      66.5      51.7       3       9     103     111    1014    0.00
    05/22/2024 12:30      57    51.2     26.22        66.7      67.1      51.7       3       7     118     147    1014    0.00
    05/22/2024 12:40      56    51.1     26.22        67.0      67.3      51.7       3       8     108     142    1014    0.00
    05/22/2024 12:50      54    51.6     26.22        67.9      68.7      51.7       2       6     156     140    1014    0.00
    05/22/2024 13:00      53    51.1     26.22        68.8      69.3      51.7       4       7     102      99    1013    0.00
    05/22/2024 13:10      53    51.1     26.22        69.0      69.8      51.7       3       6     121     143    1013    0.00
    05/22/2024 13:20      50    51.7     26.22        70.3      71.0      51.7       3       7     144     157    1013    0.00
    05/22/2024 13:30      49    51.1     26.22        71.0      71.5      51.7       3       6     111     209    1013    0.00
    05/22/2024 13:40      49    51.0     26.22        70.9      71.5      51.7       4       7      92     117    1013    0.00
    05/22/2024 13:50      49    51.0     26.22        71.3      71.8      51.7       4       8     124     137    1013    0.00
    05/22/2024 14:00      49    50.7     26.22        71.2      71.9      51.7       2       8     143     156    1013    0.00
    05/22/2024 14:10      48    51.0     26.22        72.1      72.9      51.7       1       5      41     107    1012    0.00
    05/22/2024 14:20      46    50.9     26.22        73.4      73.8      51.7       3       8      91     112    1012    0.00
    05/22/2024 14:30      45    51.0     26.22        73.6      74.3      51.7       5       8     156     166    1012    0.00
    05/22/2024 14:40      44    50.4     26.22        73.5      74.3      51.7       3       7     129     132    1012    0.00
    05/22/2024 14:50      43    50.6     26.22        74.0      75.0      51.7       3       7     169     154    1012    0.00
    05/22/2024 15:00      42    50.3     26.22        74.7      75.0      51.7       4       8     115      96    1012    0.00
    05/22/2024 15:10      43    50.5     26.22        74.3      75.0      51.7       3       8     142     112    1012    0.00
    05/22/2024 15:20      47    51.1     26.22        73.5      75.0      51.7       6      12     125     117    1011    0.00
    05/22/2024 15:30      47    51.9     26.22        73.3      75.0      51.7       6      11     139     171    1012    0.00
    05/22/2024 15:40      48    51.5     26.22        72.5      75.0      51.7       7      10     123     132    1012    0.00
    05/22/2024 15:50      49    51.5     26.22        71.8      75.0      51.7       6      11     120     118    1012    0.00
    05/22/2024 16:00      49    51.3     26.22        71.8      75.0      51.7       6      11     107     117    1012    0.00
    05/22/2024 16:10      50    51.2     26.22        70.6      75.0      51.7       6      10     110     118    1011    0.00
    05/22/2024 16:20      52    51.1     26.22        70.1      75.0      51.7       6      11     125      98    1011    0.00
    05/22/2024 16:30      53    50.9     26.22        69.1      75.0      51.7       6      10     113     102    1011    0.00
    05/22/2024 16:40      53    51.1     26.22        69.2      75.0      51.7       6      10     113      96    1011    0.00
    05/22/2024 16:50      53    51.1     26.22        69.1      75.0      51.7       5      10     118     130    1012    0.00
    05/22/2024 17:00      53    50.9     26.22        68.9      75.0      51.7       6      10     124     138    1012    0.00
    05/22/2024 17:10      52    50.7     26.22        68.8      75.0      51.7       5      11     120     105    1012    0.00
    05/22/2024 17:20      56    50.3     26.22        67.3      75.0      51.7       6      10     121     126    1012    0.00
    05/22/2024 17:30      57    50.6     26.22        66.6      75.0      51.7       5       9     127      97    1012    0.00
    05/22/2024 17:40      57    50.4     26.22        66.1      75.0      51.7       4       9     124     108    1012    0.00
    05/22/2024 17:50      58    50.1     26.22        65.5      75.0      51.7       5       9     104      79    1012    0.00
    05/22/2024 18:00      59    50.1     26.22        65.0      75.0      51.7       4       8     112     101    1012    0.00
    05/22/2024 18:10      60    50.0     26.22        64.5      75.0      51.7       5      10     124      98    1012    0.00
    05/22/2024 18:20      61    50.0     26.22        63.9      75.0      51.7       4       9      94      87    1012    0.00
    05/22/2024 18:30      62    50.0     26.22        63.5      75.0      51.7       5       9      98     101    1012    0.00
    05/22/2024 18:40      63    49.9     26.22        63.0      75.0      51.7       5       9     106     118    1012    0.00
    05/22/2024 18:50      64    49.8     26.22        62.5      75.0      51.7       6       9     110     110    1012    0.00
    05/22/2024 19:00      64    49.7     26.22        62.1      75.0      51.7       5       9     102     100    1012    0.00
    05/22/2024 19:10      65    49.6     26.22        61.8      75.0      51.7       4       9     102     120    1012    0.00
    05/22/2024 19:20      66    49.7     26.22        61.5      75.0      51.7       5       8     105     110    1012    0.00
    05/22/2024 19:30      67    49.7     26.22        61.0      75.0      51.7       5       8     102     100    1012    0.00
    05/22/2024 19:40      67    49.8     26.22        60.9      75.0      51.7       3       6     104      84    1013    0.00
    05/22/2024 19:50      67    49.8     26.22        60.7      75.0      51.7       4       9     106     108    1013    0.00
    05/22/2024 20:00      68    49.7     26.22        60.3      75.0      51.7       4       8      97     106    1013    0.00
    05/22/2024 20:10      69    49.7     26.22        59.9      75.0      51.7       4       7      90     101    1013    0.00
    05/22/2024 20:20      70    49.8     26.22        59.6      75.0      51.7       3       6      83      94    1013    0.00
    05/22/2024 20:30      71    49.8     26.22        59.3      75.0      51.7       3       7      84      64    1013    0.00
    05/22/2024 20:40      72    49.7     26.22        59.0      75.0      51.7       3       7      90      95    1013    0.00
    05/22/2024 20:50      73    49.4     26.22        58.3      75.0      51.7       3       7      88      86    1013    0.00
    05/22/2024 21:00      74    49.4     26.22        57.7      75.0      51.7       2       5      81      69    1013    0.00
    05/22/2024 21:10      75    49.5     26.22        57.3      75.0      51.7       3       6      83      92    1013    0.00
    05/22/2024 21:20      76    49.5     26.22        57.0      75.0      51.7       3       6      93     110    1013    0.00
    05/22/2024 21:30      77    49.4     26.22        56.6      75.0      51.7       2       5     106      93    1013    0.00
    05/22/2024 21:40      77    49.5     26.22        56.6      75.0      51.7       3       6     113     124    1013    0.00
    05/22/2024 21:50      77    49.7     26.22        56.7      75.0      51.7       3       6     116     112    1013    0.00
    05/22/2024 22:00      77    49.8     26.22        56.8      75.0      51.7       4       6     130     127    1013    0.00
    05/22/2024 22:10      77    49.7     26.22        56.8      75.0      51.7       4       7     108      99    1013    0.00
    05/22/2024 22:20      77    49.9     26.22        56.8      75.0      51.7       3       6     121     128    1013    0.00
    05/22/2024 22:30      77    49.9     26.22        57.0      75.0      51.7       3       6     128     124    1013    0.00
    05/22/2024 22:40      77    49.9     26.22        57.0      75.0      51.7       3       6     135     146    1013    0.00
    05/22/2024 22:50      77    49.9     26.22        57.0      75.0      51.7       2       5     152     176    1013    0.00
    05/22/2024 23:00      77    49.9     26.22        57.0      75.0      51.7       1       4     168     161    1013    0.00
    05/22/2024 23:10      77    49.9     26.22        57.0      75.0      51.7       0       3     136      98    1013    0.00
    05/22/2024 23:20      77    49.9     26.22        57.0      75.0      51.7       0       3     154     174    1013    0.00
    05/22/2024 23:30      77    50.0     26.22        57.1      75.0      51.7       2       4     165     175    1013    0.00
    05/22/2024 23:40      77    50.0     26.22        57.1      75.0      51.7       2       3     166     178    1013    0.00
    05/22/2024 23:50      77    49.9     26.22        57.0      75.0      51.7       0       3     187     186    1013    0.00
    05/23/2024 00:00      77    49.9     26.22        57.1      75.0      51.7       1       3     172     172    1013    0.00
    05/23/2024 00:10      77    50.1     26.22        57.2      57.4      56.9       2       4     166     167    1013    0.00
    05/23/2024 00:20      77    50.0     26.22        57.2      57.4      56.9       2       5     159     170    1013    0.00
    05/23/2024 00:30      77    50.0     26.22        57.2      57.4      56.9       1       3     172     164    1013    0.00
    05/23/2024 00:40      77    50.0     26.22        57.3      57.4      56.9       1       3     157     156    1013    0.00
    05/23/2024 00:50      77    50.0     26.22        57.3      57.5      56.9       0       2     119      82    1013    0.00
    05/23/2024 01:00      77    50.2     26.22        57.4      57.6      56.9       0       3     194     175    1013    0.00
    05/23/2024 01:10      77    50.2     26.22        57.4      57.6      56.9       0       0       0     230    1013    0.00
    05/23/2024 01:20      77    50.2     26.22        57.5      57.7      56.9       1       3     181     169    1013    0.00
    05/23/2024 01:30      77    50.3     26.22        57.5      57.7      56.9       2       4     161     144    1012    0.00
    05/23/2024 01:40      77    50.3     26.22        57.5      57.7      56.9       2       5     149     172    1012    0.00
    05/23/2024 01:50      76    50.2     26.22        57.6      57.8      56.9       2       4     111      43    1012    0.00
    05/23/2024 02:00      75    49.9     26.22        57.6      57.8      56.9       1       3      73      86    1012    0.00
    05/23/2024 02:10      75    50.0     26.22        57.7      57.9      56.9       2       4      91      57    1012    0.00
    05/23/2024 02:20      75    49.9     26.22        57.7      57.9      56.9       3       5     102     112    1012    0.00
    05/23/2024 02:30      75    49.8     26.22        57.6      57.9      56.9       3       5     131     123    1012    0.00
    05/23/2024 02:40      76    49.8     26.22        57.5      57.9      56.9       2       4     124     124    1012    0.00
    05/23/2024 02:50      75    49.9     26.22        57.6      57.9      56.9       2       4     103      88    1012    0.00
    05/23/2024 03:00      74    49.6     26.22        57.6      57.9      56.9       2       5     107     104    1012    0.00
    05/23/2024 03:10      74    49.4     26.22        57.6      57.9      56.9       2       4      97     101    1012    0.00
    05/23/2024 03:20      74    49.4     26.22        57.7      57.9      56.9       2       3     128     179    1012    0.00
    05/23/2024 03:30      74    49.5     26.22        57.8      57.9      56.9       3       5     163     160    1012    0.00
    05/23/2024 03:40      75    49.7     26.22        57.6      57.9      56.9       3       5     146     145    1012    0.00
    05/23/2024 03:50      76    49.7     26.22        57.3      57.9      56.9       4       6     150     147    1012    0.00
    05/23/2024 04:00      76    49.7     26.22        57.1      57.9      56.9       4       7     147     128    1012    0.00
    05/23/2024 04:10      76    49.7     26.22        57.0      57.9      56.9       3       5     112      93    1012    0.00
    05/23/2024 04:20      76    49.5     26.22        57.0      57.9      56.8       3       7     150     157    1012    0.00
    05/23/2024 04:30      76    49.5     26.22        56.9      57.9      56.7       3       6     155     152    1012    0.00
    05/23/2024 04:40      76    49.5     26.22        56.9      57.9      56.7       3       6     152     158    1012    0.00
    05/23/2024 04:50      76    49.5     26.22        56.9      57.9      56.7       3       5     155     138    1012    0.00
    05/23/2024 05:00      76    49.3     26.22        56.8      57.9      56.6       3       5     137     179    1012    0.00
    05/23/2024 05:10      76    49.3     26.22        56.7      57.9      56.5       2       5     148     162    1012    0.00
    05/23/2024 05:20      77    49.3     26.22        56.6      57.9      56.3       3       5     152     162    1012    0.00
    05/23/2024 05:30      77    49.3     26.22        56.6      57.9      56.3       3       6     135     146    1012    0.00
    05/23/2024 05:40      77    49.3     26.22        56.5      57.9      56.3       2       5     144     142    1012    0.00
    05/23/2024 05:50      76    49.1     26.22        56.5      57.9      56.3       2       5     127     117    1012    0.00
    05/23/2024 06:00      76    49.3     26.22        56.7      57.9      56.3       3       5     168     159    1012    0.00
    05/23/2024 06:10      76    49.1     26.22        56.7      57.9      56.3       4       6     153     124    1012    0.00
    05/23/2024 06:20      75    49.1     26.22        56.8      57.9      56.3       3       5     133     101    1012    0.00
    05/23/2024 06:30      75    49.0     26.22        56.9      57.9      56.3       2       4     144      99    1012    0.00
    05/23/2024 06:40      75    49.1     26.22        57.0      57.9      56.3       3       6     162     159    1012    0.00
    05/23/2024 06:50      75    49.0     26.22        57.0      57.9      56.3       2       5     145     140    1012    0.00
    05/23/2024 07:00      75    49.1     26.22        57.0      57.9      56.3       3       5     148     165    1013    0.00
    05/23/2024 07:10      74    49.3     26.22        57.2      57.9      56.3       3       5     155     139    1013    0.00
    05/23/2024 07:20      75    49.2     26.22        57.2      57.9      56.3       2       4     175     165    1013    0.00
    05/23/2024 07:30      74    49.1     26.22        57.3      57.9      56.3       3       6     153     194    1013    0.00
    05/23/2024 07:40      74    49.3     26.22        57.5      57.9      56.3       4       6     163     165    1013    0.00
    05/23/2024 07:50      73    49.3     26.22        57.5      57.9      56.3       4       6     172     187    1013    0.00
    05/23/2024 08:00      73    49.2     26.22        57.7      57.9      56.3       3       6     172     164    1013    0.00
    05/23/2024 08:10      72    49.1     26.22        57.9      58.1      56.3       4       6     164     177    1013    0.00
    05/23/2024 08:20      71    49.1     26.22        58.1      58.3      56.3       3       6     171     182    1013    0.00
    05/23/2024 08:30      71    48.9     26.22        58.2      58.4      56.3       3       6     146     101    1013    0.00
    05/23/2024 08:40      70    49.1     26.22        58.5      58.8      56.3       3       5     166     167    1013    0.00
    05/23/2024 08:50      68    48.6     26.22        58.7      59.0      56.3       2       6     139     145    1013    0.00
    05/23/2024 09:00      68    48.5     26.22        59.0      59.3      56.3       2       5     191     208    1013    0.00
    05/23/2024 09:10      67    48.5     26.22        59.3      59.6      56.3       1       4     140     130    1013    0.00
    05/23/2024 09:20      67    48.5     26.22        59.5      59.9      56.3       2       5     180     132    1013    0.00
    05/23/2024 09:30      66    48.5     26.22        59.8      60.0      56.3       3       6     152     147    1013    0.00
    05/23/2024 09:40      65    48.4     26.22        60.0      60.5      56.3       1       3     175     131    1013    0.00
    05/23/2024 09:50      64    48.3     26.22        60.3      60.5      56.3       3       6     161     163    1013    0.00
    05/23/2024 10:00      63    48.1     26.22        60.3      60.6      56.3       2       5     115     130    1013    0.00
    05/23/2024 10:10      63    48.0     26.22        60.5      61.0      56.3       2       5     109      98    1013    0.00
    05/23/2024 10:20      62    48.1     26.22        61.1      61.3      56.3       2       5     115      82    1013    0.00
    05/23/2024 10:30      63    48.1     26.22        61.2      61.7      56.3       2       5     142     182    1013    0.00
    05/23/2024 10:40      60    48.2     26.22        61.9      62.3      56.3       2       6     109     104    1013    0.00
    05/23/2024 10:50      59    48.3     26.22        62.2      62.6      56.3       2       7     133     157    1013    0.00
    05/23/2024 11:00      59    47.8     26.22        62.3      62.7      56.3       3       6      95     128    1013    0.00
    05/23/2024 11:10      59    48.2     26.22        62.4      63.5      56.3       2       6     137     121    1013    0.00
    05/23/2024 11:20      57    47.9     26.22        63.1      63.6      56.3       3       6      79      68    1013    0.00
    05/23/2024 11:30      55    48.0     26.22        63.7      64.3      56.3       2       6      94      88    1013    0.00
    05/23/2024 11:40      53    48.0     26.22        65.0      65.5      56.3       2       8     101     119    1013    0.00
    05/23/2024 11:50      53    47.8     26.22        65.1      65.5      56.3       3       6     128     141    1013    0.00
    05/23/2024 12:00      52    47.5     26.22        65.4      65.6      56.3       3       7     107      91    1013    0.00
    05/23/2024 12:10      52    47.4     26.22        65.6      66.0      56.3       2       5      96      74    1013    0.00
    05/23/2024 12:20      52    47.6     26.22        65.7      66.2      56.3       3       6     129     142    1013    0.00
    05/23/2024 12:30      51    47.7     26.22        65.9      66.8      56.3       3       9      91     109    1013    0.00
    05/23/2024 12:40      51    47.3     26.22        66.5      67.2      56.3       2       5      77      73    1013    0.00
    05/23/2024 12:50      49    48.5     26.22        67.5      69.5      56.3       3       6     144     179    1013    0.00
    05/23/2024 13:00      46    47.6     26.22        69.0      69.7      56.3       3       8     132     104    1012    0.00
    05/23/2024 13:10      50    47.1     26.22        67.8      69.7      56.3       4       8      59      54    1012    0.00
    05/23/2024 13:20      53    48.6     26.22        66.9      69.7      56.3       6      10     132     109    1012    0.00
    05/23/2024 13:30      52    49.1     26.22        66.8      69.7      56.3       6      10     133     108    1012    0.00
    05/23/2024 13:40      49    49.3     26.22        67.6      69.7      56.3       5      10     123     183    1012    0.00
    05/23/2024 13:50      51    49.4     26.22        68.2      69.7      56.3       6      11     146     176    1012    0.00
    05/23/2024 14:00      48    49.6     26.22        70.3      71.1      56.3       4       9     144     157    1012    0.00
    05/23/2024 14:10      49    48.5     26.22        68.8      71.1      56.3       3       6     149     173    1012    0.00
    05/23/2024 14:20      46    48.9     26.22        69.3      71.1      56.3       3       7     152     122    1012    0.00
    05/23/2024 14:30      48    48.0     26.22        68.9      71.1      56.3       3      10     101      97    1012    0.00
    05/23/2024 14:40      51    48.5     26.22        67.7      71.1      56.3       6      12     108     111    1012    0.00
    05/23/2024 14:50      51    48.6     26.22        67.2      71.1      56.3       5      10     108      90    1012    0.00
    05/23/2024 15:00      51    48.5     26.22        67.6      71.1      56.3       4       7     108      90    1012    0.00
    05/23/2024 15:10      51    48.7     26.22        67.6      71.1      56.3       4       8     159     169    1012    0.00
    05/23/2024 15:20      51    48.5     26.22        67.8      71.1      56.3       3       9     129     104    1012    0.00
    05/23/2024 15:30      52    48.5     26.22        67.3      71.1      56.3       5      10     160     185    1012    0.00
    05/23/2024 15:40      53    49.1     26.22        67.2      71.1      56.3       6       9     144     155    1012    0.00
    05/23/2024 15:50      54    49.3     26.22        66.9      71.1      56.3       6      10     152     142    1011    0.00
    05/23/2024 16:00      55    49.1     26.22        66.1      71.1      56.3       5       9     131     117    1011    0.00
    05/23/2024 16:10      55    49.4     26.22        66.2      71.1      56.3       4       9     161     174    1012    0.00
    05/23/2024 16:20      54    49.1     26.22        66.0      71.1      56.3       4       8     125     115    1012    0.00
    05/23/2024 16:30      56    49.0     26.22        65.3      71.1      56.3       4       7     124      96    1011    0.00
    05/23/2024 16:40      57    49.3     26.22        65.1      71.1      56.3       5       9     171     191    1011    0.00
    05/23/2024 16:50      57    49.3     26.22        65.0      71.1      56.3       6       9     183     187    1011    0.00
    05/23/2024 17:00      57    49.2     26.22        64.7      71.1      56.3       5       9     188     180    1011    0.00